Time;durP1;ratioP1;P1;durP2;ratioP2;P2;SDS_P1;SDS_P2;PMS_P1;PMS_P2;Temp;Humidity;BMP_temperature;BMP_pressure;BME280_temperature;BME280_humidity;BME280_pressure;Samples;Min_cycle;Max_cycle;Signal;HPM_P1;HPM_P2
2022/09/03 00:01:17;;;;;;;0.77;0.75;;;18.60;66.50;;;19.06;64.25;100532.34;5183197;28;20469;-70
2022/09/03 00:03:56;;;;;;;1.27;0.90;;;18.60;67.00;;;19.05;63.64;100535.00;5184387;28;20582;-70
2022/09/03 00:06:37;;;;;;;0.80;0.80;;;18.60;66.70;;;19.03;64.04;100528.84;5183720;28;20499;-69
2022/09/03 00:09:16;;;;;;;1.13;0.70;;;18.60;67.00;;;18.97;64.91;100528.00;5184289;28;20049;-70
2022/09/03 00:11:54;;;;;;;0.80;0.77;;;18.50;67.60;;;18.91;65.67;100524.50;5184034;28;20089;-69
2022/09/03 00:14:34;;;;;;;0.77;0.77;;;18.50;68.20;;;18.82;66.41;100525.38;5184240;28;20121;-70
2022/09/03 00:17:15;;;;;;;1.60;0.95;;;18.40;68.70;;;18.75;67.27;100528.06;5183662;28;20056;-70
2022/09/03 00:19:59;;;;;;;1.67;1.40;;;18.30;69.40;;;18.66;68.13;100527.19;5186927;28;20041;-70
2022/09/03 00:22:38;;;;;;;1.13;0.90;;;18.20;70.00;;;18.58;68.74;100528.03;5186957;28;20056;-70
2022/09/03 00:25:16;;;;;;;2.25;0.88;;;18.20;70.60;;;18.50;69.45;100519.28;5188178;28;20172;-70
2022/09/03 00:27:54;;;;;;;1.38;1.00;;;18.10;71.20;;;18.41;70.14;100525.47;5187877;28;20317;-69
2022/09/03 00:30:29;;;;;;;1.88;0.82;;;18.00;71.80;;;18.32;70.84;100520.16;5186835;28;20056;-69
2022/09/03 00:33:09;;;;;;;1.52;1.40;;;17.90;72.20;;;18.27;71.25;100527.25;5187923;28;20045;-70
2022/09/03 00:35:47;;;;;;;1.73;1.23;;;17.90;72.80;;;18.17;71.94;100524.59;5187807;28;20624;-70
2022/09/03 00:38:21;;;;;;;1.48;1.20;;;17.80;73.30;;;18.11;72.18;100527.22;5186729;28;20093;-70
2022/09/03 00:41:06;;;;;;;1.17;1.08;;;17.70;73.50;;;18.04;72.52;100525.47;5187688;28;20060;-70
2022/09/03 00:43:58;;;;;;;1.20;1.10;;;17.70;73.90;;;17.98;72.91;100524.59;5186644;28;20232;-70
2022/09/03 00:46:40;;;;;;;1.10;1.00;;;17.60;74.30;;;17.93;73.38;100521.06;5187249;28;20042;-69
2022/09/03 00:49:41;;;;;;;1.15;0.95;;;17.50;74.70;;;17.90;72.31;100516.69;5187822;28;20046;-70
2022/09/03 00:52:25;;;;;;;1.35;1.20;;;17.50;74.20;;;17.87;72.37;100519.34;5187292;28;20049;-70
2022/09/03 00:55:07;;;;;;;1.13;1.02;;;17.50;74.40;;;17.84;73.22;100522.81;5186499;28;20149;-70
2022/09/03 00:57:55;;;;;;;1.45;1.20;;;17.40;75.00;;;17.79;73.45;100521.94;5187304;28;20124;-70
2022/09/03 01:00:28;;;;;;;1.27;1.17;;;17.40;75.30;;;17.75;74.29;100519.31;5185877;28;20445;-70
2022/09/03 01:03:09;;;;;;;2.22;1.25;;;17.30;75.90;;;17.66;74.45;100513.97;5187432;28;20045;-69
2022/09/03 01:06:02;;;;;;;2.90;1.30;;;17.30;76.30;;;17.58;74.89;100522.75;5186545;28;20477;-71
2022/09/03 01:08:52;;;;;;;2.28;0.93;;;17.20;76.70;;;17.52;75.25;100520.09;5185756;28;20045;-70
2022/09/03 01:11:37;;;;;;;1.50;1.10;;;17.20;77.20;;;17.48;75.61;100525.38;5185955;28;20041;-70
2022/09/03 01:14:24;;;;;;;1.10;1.00;;;17.10;77.50;;;17.41;75.67;100520.94;5187223;28;20129;-71
2022/09/03 01:17:09;;;;;;;1.15;1.00;;;17.00;77.90;;;17.36;76.01;100523.59;5186977;28;20046;-69
2022/09/03 01:20:16;;;;;;;2.42;1.30;;;17.00;78.30;;;17.32;76.00;100521.81;5187090;28;20052;-70
2022/09/03 01:23:44;;;;;;;1.63;1.27;;;17.00;78.50;;;17.25;76.94;100520.03;5186866;28;20402;-69
2022/09/03 01:26:49;;;;;;;1.38;1.27;;;16.90;79.30;;;17.21;77.06;100519.13;5186727;28;20076;-70
2022/09/03 01:29:30;;;;;;;2.22;1.33;;;16.90;79.70;;;17.17;76.94;100521.78;5186921;28;20050;-69
2022/09/03 01:32:14;;;;;;;1.25;1.15;;;16.80;79.80;;;17.13;76.98;100520.00;5186711;28;20049;-69
2022/09/03 01:34:56;;;;;;;1.25;1.15;;;16.80;80.10;;;17.10;77.13;100523.50;5187006;28;20049;-71
2022/09/03 01:37:47;;;;;;;2.30;1.20;;;16.70;80.30;;;17.08;77.74;100527.88;5186327;28;20100;-69
2022/09/03 01:40:33;;;;;;;1.92;1.30;;;16.70;80.90;;;17.06;77.78;100535.75;5185546;28;20054;-70
2022/09/03 01:43:35;;;;;;;1.50;1.13;;;16.70;81.30;;;17.04;78.68;100537.53;5185509;28;20046;-70
2022/09/03 01:46:19;;;;;;;1.88;1.17;;;16.70;82.00;;;17.01;78.92;100526.09;5184922;28;20510;-69
2022/09/03 01:49:02;;;;;;;2.22;1.40;;;16.70;82.50;;;16.96;79.36;100526.09;5186414;28;20042;-71
2022/09/03 01:51:35;;;;;;;1.20;1.10;;;16.60;83.10;;;16.93;79.55;100517.28;5186780;28;20040;-70
2022/09/03 01:54:44;;;;;;;1.80;1.48;;;16.60;83.50;;;16.87;80.34;100525.16;5186309;28;20118;-70
2022/09/03 01:57:43;;;;;;;1.45;1.20;;;16.50;84.00;;;16.83;80.70;100519.00;5185985;28;20056;-71
2022/09/03 02:00:18;;;;;;;2.55;1.60;;;16.50;84.70;;;16.79;80.58;100509.31;5186332;28;20056;-71
2022/09/03 02:02:53;;;;;;;2.13;1.30;;;16.50;85.10;;;16.75;81.00;100512.78;5186251;28;20045;-71
2022/09/03 02:05:28;;;;;;;1.85;1.23;;;16.40;85.50;;;16.72;81.79;100515.44;5186420;28;20046;-70
2022/09/03 02:08:04;;;;;;;2.72;1.42;;;16.40;86.90;;;16.67;81.83;100518.00;5185724;28;20050;-71
2022/09/03 02:10:43;;;;;;;2.90;1.33;;;16.40;86.70;;;16.64;82.20;100515.34;5186201;28;20042;-71
2022/09/03 02:13:19;;;;;;;1.60;1.23;;;16.30;87.60;;;16.62;82.02;100513.56;5186294;28;20121;-70
2022/09/03 02:15:57;;;;;;;1.73;1.40;;;16.30;87.90;;;16.58;82.15;100510.06;5185815;28;20078;-70
2022/09/03 02:18:35;;;;;;;1.73;1.27;;;16.30;87.50;;;16.56;82.41;100511.78;5185953;28;20098;-71
2022/09/03 02:21:09;;;;;;;1.45;1.25;;;16.20;88.40;;;16.51;82.74;100509.13;5185829;28;20046;-70
2022/09/03 02:23:42;;;;;;;2.05;1.30;;;16.20;88.20;;;16.49;82.63;100512.63;5185877;28;20149;-70
2022/09/03 02:26:20;;;;;;;3.38;1.38;;;16.10;88.40;;;16.47;82.96;100509.97;5185642;28;20048;-70
2022/09/03 02:28:54;;;;;;;1.95;1.30;;;16.10;88.70;;;16.45;82.87;100509.09;5185568;28;20061;-70
2022/09/03 02:31:27;;;;;;;1.35;1.25;;;16.10;88.90;;;16.43;82.77;100505.59;5185980;28;20048;-70
2022/09/03 02:34:06;;;;;;;1.23;1.13;;;16.10;89.10;;;16.42;82.95;100509.06;5184652;28;20045;-70
2022/09/03 02:36:44;;;;;;;1.13;1.05;;;16.10;89.30;;;16.43;83.20;100505.59;5184457;28;20104;-70
2022/09/03 02:39:17;;;;;;;1.35;1.05;;;16.10;89.60;;;16.44;82.68;100507.34;5185681;28;20050;-69
2022/09/03 02:41:55;;;;;;;1.70;1.15;;;16.10;89.50;;;16.43;82.90;100500.31;5185599;28;20373;-70
2022/09/03 02:44:31;;;;;;;1.50;1.40;;;16.10;89.70;;;16.43;82.98;100505.59;5184316;28;20046;-70
2022/09/03 02:47:07;;;;;;;1.63;1.10;;;16.10;90.00;;;16.43;83.27;100508.22;5183971;28;20054;-70
2022/09/03 02:49:41;;;;;;;1.58;1.25;;;16.10;90.10;;;16.41;83.27;100503.81;5185338;28;20042;-70
2022/09/03 02:52:15;;;;;;;1.23;1.13;;;16.10;90.20;;;16.39;83.40;100503.78;5184167;28;20104;-70
2022/09/03 02:54:47;;;;;;;;;;;16.10;90.30;;;16.37;83.52;100504.66;5184307;28;20050;-70
2022/09/03 02:57:20;;;;;;;2.63;1.30;;;16.00;90.30;;;16.35;83.64;100506.38;5183894;28;19921;-70
2022/09/03 02:59:52;;;;;;;1.30;1.20;;;16.00;90.40;;;16.33;83.81;100509.00;5183931;28;20240;-70
2022/09/03 03:02:24;;;;;;;1.38;1.20;;;16.00;90.50;;;16.30;84.31;100509.00;5183940;28;20491;-71
2022/09/03 03:04:58;;;;;;;1.85;1.10;;;16.00;90.80;;;16.27;84.87;100504.59;5184947;28;20076;-70
2022/09/03 03:07:34;;;;;;;1.48;1.20;;;16.00;91.00;;;16.25;84.84;100503.72;5184687;28;20260;-70
2022/09/03 03:10:08;;;;;;;1.33;1.15;;;15.90;91.00;;;16.23;84.50;100497.53;5183579;28;20134;-73
2022/09/03 03:12:41;;;;;;;2.85;1.42;;;15.90;91.00;;;16.22;84.69;100497.53;5184763;28;20034;-70
2022/09/03 03:15:14;;;;;;;1.30;1.20;;;15.90;91.10;;;16.21;84.65;100493.16;5183560;28;20061;-69
2022/09/03 03:17:47;;;;;;;1.33;1.20;;;15.90;91.20;;;16.18;84.41;100487.88;5184785;28;20046;-70
2022/09/03 03:20:20;;;;;;;2.88;1.27;;;15.90;91.20;;;16.16;84.27;100494.84;5184899;28;20407;-73
2022/09/03 03:22:54;;;;;;;1.20;1.10;;;15.80;91.10;;;16.14;84.33;100491.34;5184832;28;20125;-70
2022/09/03 03:25:27;;;;;;;1.17;1.00;;;15.80;91.20;;;16.13;84.30;100494.84;5183691;28;20470;-70
2022/09/03 03:28:01;;;;;;;1.58;1.23;;;15.80;91.20;;;16.11;84.05;100499.22;5184727;28;20429;-71
2022/09/03 03:30:34;;;;;;;1.33;1.20;;;15.80;91.20;;;16.10;83.98;100495.69;5183329;28;20053;-70
2022/09/03 03:33:06;;;;;;;1.23;1.13;;;15.80;91.20;;;16.08;84.09;100496.56;5184423;28;20121;-70
2022/09/03 03:35:41;;;;;;;1.63;1.20;;;15.80;91.30;;;16.08;83.77;100501.81;5183108;28;20141;-70
2022/09/03 03:38:13;;;;;;;1.13;1.02;;;15.70;91.20;;;16.07;84.04;100500.06;5184325;28;20057;-70
2022/09/03 03:40:45;;;;;;;1.52;1.40;;;15.70;91.30;;;16.04;84.24;100495.66;5184882;28;20154;-71
2022/09/03 03:43:19;;;;;;;1.13;1.02;;;15.70;91.40;;;16.03;84.59;100493.88;5184344;28;20045;-70
2022/09/03 03:45:57;;;;;;;1.58;1.27;;;15.70;91.50;;;16.02;84.50;100495.63;5182957;28;20108;-71
2022/09/03 03:48:32;;;;;;;1.63;1.08;;;15.70;91.60;;;16.02;84.12;100493.00;5182755;28;20042;-70
2022/09/03 03:51:08;;;;;;;;;;;15.70;91.50;;;16.04;84.45;100494.75;5184947;28;20045;-70
2022/09/03 03:53:42;;;;;;;1.40;1.30;;;15.70;91.60;;;16.08;84.63;100496.56;5182005;28;19925;-70
2022/09/03 03:56:16;;;;;;;1.65;1.30;;;15.70;91.70;;;16.10;84.47;100500.06;5184426;28;20044;-71
2022/09/03 03:58:48;;;;;;;1.10;1.00;;;15.70;91.70;;;16.15;84.77;100506.25;5183828;28;20524;-70
2022/09/03 04:01:23;;;;;;;1.48;1.13;;;15.80;91.90;;;16.18;84.66;100488.75;5183079;28;20045;-71
2022/09/03 04:03:56;;;;;;;1.58;1.02;;;15.80;91.90;;;16.22;84.96;100481.75;5182993;28;20046;-70
2022/09/03 04:06:29;;;;;;;1.25;1.00;;;15.90;92.00;;;16.27;85.02;100490.56;5182838;28;20100;-70
2022/09/03 04:09:02;;;;;;;1.45;1.02;;;15.90;92.00;;;16.35;84.64;100488.84;5182640;28;20069;-70
2022/09/03 04:11:35;;;;;;;1.10;1.00;;;16.00;92.00;;;16.41;83.96;100483.63;5184190;28;20050;-71
2022/09/03 04:14:07;;;;;;;0.93;0.90;;;16.00;91.80;;;16.46;82.03;100486.28;5184189;28;20046;-70
2022/09/03 04:16:39;;;;;;;1.13;0.90;;;16.10;91.10;;;16.52;80.98;100489.84;5183892;28;20421;-71
2022/09/03 04:19:12;;;;;;;1.30;1.02;;;16.10;90.70;;;16.57;80.56;100486.38;5182810;28;20050;-71
2022/09/03 04:21:46;;;;;;;1.00;0.90;;;16.20;90.50;;;16.62;80.05;100493.38;5184130;28;20233;-71
2022/09/03 04:24:18;;;;;;;0.90;0.82;;;16.30;90.40;;;16.67;79.70;100498.69;5183768;28;20048;-70
2022/09/03 04:26:52;;;;;;;1.02;0.93;;;16.30;90.20;;;16.73;79.13;100498.75;5183802;28;20085;-70
2022/09/03 04:29:25;;;;;;;1.42;0.90;;;16.40;90.00;;;16.76;79.20;100490.91;5182467;28;20099;-70
2022/09/03 04:34:53;;;;;;;1.30;1.10;;;16.40;89.50;;;16.83;78.94;100490.03;5168493;28;20073;-71
2022/09/03 04:37:26;;;;;;;1.60;1.00;;;16.50;89.60;;;16.84;79.41;100489.16;5182111;28;20049;-71
2022/09/03 04:39:58;;;;;;;1.40;0.88;;;16.50;90.00;;;16.86;79.74;100489.16;5184311;28;20050;-70
2022/09/03 04:42:30;;;;;;;0.98;0.98;;;16.50;90.10;;;16.86;80.48;100489.16;5181765;28;20053;-71
2022/09/03 04:45:03;;;;;;;1.10;1.00;;;16.50;90.30;;;16.88;80.91;100493.56;5182269;28;20111;-70
2022/09/03 04:47:36;;;;;;;1.20;1.10;;;16.50;90.40;;;16.89;80.23;100481.25;5183575;28;20048;-70
2022/09/03 04:50:09;;;;;;;1.17;1.08;;;16.60;90.20;;;16.90;79.81;100486.56;5183819;28;20046;-71
2022/09/03 04:52:43;;;;;;;1.00;0.90;;;16.50;90.10;;;16.92;79.68;100484.81;5183504;28;20048;-71
2022/09/03 04:55:18;;;;;;;1.20;1.10;;;16.50;90.00;;;16.93;79.92;100481.28;5183639;28;20050;-70
2022/09/03 04:57:50;;;;;;;1.23;0.90;;;16.60;90.10;;;16.94;79.92;100482.16;5183262;28;20046;-70
2022/09/03 05:00:22;;;;;;;1.20;1.02;;;16.60;90.10;;;16.94;79.88;100488.31;5183544;28;20410;-70
2022/09/03 05:02:54;;;;;;;1.00;0.90;;;16.60;90.10;;;16.98;79.13;100500.63;5182262;28;20048;-71
2022/09/03 05:05:27;;;;;;;0.75;0.70;;;16.60;89.70;;;17.01;77.66;100494.47;5185666;28;20120;-70
2022/09/03 05:08:03;;;;;;;1.23;0.98;;;16.60;88.60;;;17.05;77.12;100498.91;5185553;28;20135;-70
2022/09/03 05:10:35;;;;;;;0.90;0.90;;;16.70;88.20;;;17.08;76.94;100502.44;5187328;28;20045;-70
2022/09/03 05:13:07;;;;;;;1.50;1.13;;;16.70;87.90;;;17.12;76.63;100498.03;5185895;28;20142;-71
2022/09/03 05:15:44;;;;;;;1.92;0.82;;;16.70;88.20;;;17.14;76.73;100496.28;5187542;28;20069;-71
2022/09/03 05:18:16;;;;;;;0.93;0.80;;;16.80;87.70;;;17.18;77.00;100505.09;5187302;28;20405;-71
2022/09/03 05:20:48;;;;;;;0.85;0.85;;;16.80;87.90;;;17.21;77.17;100502.44;5187797;28;20376;-70
2022/09/03 05:23:22;;;;;;;0.82;0.82;;;16.80;87.90;;;17.26;76.31;100506.00;5187177;28;20065;-71
2022/09/03 05:25:59;;;;;;;1.25;1.10;;;16.90;87.40;;;17.27;75.56;100511.25;5186382;28;20131;-71
2022/09/03 05:28:32;;;;;;;0.82;0.82;;;16.90;86.60;;;17.30;75.71;100508.66;5185553;28;20068;-71
2022/09/03 05:31:07;;;;;;;1.05;0.90;;;17.00;86.60;;;17.33;75.55;100502.50;5187055;28;20073;-70
2022/09/03 05:33:41;;;;;;;2.05;1.02;;;17.00;86.30;;;17.37;75.72;100499.00;5187263;28;20041;-71
2022/09/03 05:36:17;;;;;;;0.80;0.80;;;17.00;86.40;;;17.42;75.07;100502.53;5186358;28;20506;-71
2022/09/03 05:38:53;;;;;;;1.38;1.10;;;17.10;86.60;;;17.48;74.28;100502.56;5187227;28;20411;-72
2022/09/03 05:41:27;;;;;;;1.23;0.90;;;17.10;85.30;;;17.55;74.59;100509.59;5186786;28;20049;-71
2022/09/03 05:44:00;;;;;;;0.85;0.80;;;17.20;85.40;;;17.62;74.27;100495.53;5185457;28;20042;-68
2022/09/03 05:46:36;;;;;;;1.25;1.15;;;17.30;85.20;;;17.69;73.89;100499.06;5186559;28;20394;-67
2022/09/03 05:49:10;;;;;;;1.25;0.90;;;17.30;84.80;;;17.76;73.43;100502.63;5186694;28;20054;-69
2022/09/03 05:51:42;;;;;;;1.40;0.90;;;17.40;84.40;;;17.82;73.37;100498.22;5186638;28;20058;-70
2022/09/03 05:54:16;;;;;;;0.80;0.80;;;17.40;84.20;;;17.89;73.11;100507.91;5186279;28;20103;-68
2022/09/03 05:56:48;;;;;;;0.98;0.80;;;17.50;84.00;;;17.94;72.80;100501.75;5186627;28;20132;-68
2022/09/03 05:59:21;;;;;;;1.10;1.00;;;17.60;83.60;;;17.98;72.61;100499.09;5186224;28;20503;-68
2022/09/03 06:01:53;;;;;;;0.98;0.90;;;17.60;83.40;;;18.04;72.25;100498.22;5186245;28;20096;-69
2022/09/03 06:04:26;;;;;;;1.00;1.00;;;17.70;83.00;;;18.10;71.96;100501.72;5184952;28;20046;-53
2022/09/03 06:06:58;;;;;;;1.30;1.00;;;17.80;82.80;;;18.15;71.60;100499.97;5185811;28;20056;-52
2022/09/03 06:09:32;;;;;;;0.90;0.85;;;17.80;82.30;;;18.19;71.26;100503.47;5246709;22;20056;-57
2022/09/03 06:12:04;;;;;;;0.85;0.82;;;17.80;81.90;;;18.24;71.22;100500.84;5227195;28;20123;-59
2022/09/03 06:14:37;;;;;;;1.02;0.93;;;17.90;81.70;;;18.30;71.47;100506.13;5227188;28;20044;-57
2022/09/03 06:17:11;;;;;;;0.93;0.93;;;18.00;81.90;;;18.39;70.95;100511.41;5226169;28;20083;-57
2022/09/03 06:19:43;;;;;;;1.10;1.00;;;18.00;81.60;;;18.45;70.94;100511.34;5237574;28;20052;-57
2022/09/03 06:22:15;;;;;;;1.67;0.90;;;18.10;81.40;;;18.52;70.74;100513.13;5247693;28;20076;-58
2022/09/03 06:24:51;;;;;;;1.55;0.77;;;18.20;81.30;;;18.59;70.70;100519.28;5246150;28;20049;-58
2022/09/03 06:27:24;;;;;;;0.73;0.73;;;18.20;81.00;;;18.66;70.42;100514.00;5247583;28;20049;-61
2022/09/03 06:29:59;;;;;;;1.75;1.25;;;18.30;80.80;;;18.73;70.26;100516.63;5247407;28;20044;-57
2022/09/03 06:32:32;;;;;;;1.10;1.02;;;18.40;80.70;;;18.78;70.16;100517.47;5247515;28;20083;-58
2022/09/03 06:35:06;;;;;;;1.00;0.82;;;18.40;81.10;;;18.85;69.78;100521.88;5247305;28;20378;-58
2022/09/03 06:37:40;;;;;;;0.75;0.75;;;18.50;80.20;;;18.97;70.38;100527.09;5247287;28;20135;-57
2022/09/03 06:40:19;;;;;;;1.23;0.88;;;18.60;80.60;;;19.04;70.04;100522.66;5247062;28;20455;-56
2022/09/03 06:43:02;;;;;;;1.00;1.00;;;18.70;80.20;;;19.16;70.05;100520.84;5246024;28;20492;-57
2022/09/03 06:45:34;;;;;;;1.33;0.98;;;18.80;80.10;;;19.24;69.46;100520.84;5247288;28;20037;-57
2022/09/03 06:48:06;;;;;;;1.00;0.90;;;18.90;79.70;;;19.26;68.81;100519.06;5247148;28;20036;-57
2022/09/03 06:50:38;;;;;;;1.30;0.82;;;18.90;79.00;;;19.28;68.59;100519.03;5246900;28;20052;-58
2022/09/03 06:53:10;;;;;;;1.23;1.10;;;18.90;79.10;;;19.34;68.73;100511.06;5246964;28;20519;-58
2022/09/03 06:55:44;;;;;;;1.98;1.10;;;19.00;79.20;;;19.47;68.42;100516.28;5246886;28;20049;-56
2022/09/03 06:58:16;;;;;;;2.25;1.05;;;19.10;78.60;;;19.59;68.26;100522.41;5247009;28;20048;-57
2022/09/03 07:00:49;;;;;;;1.35;1.05;;;19.10;78.30;;;19.72;67.85;100522.31;5246837;28;20463;-57
2022/09/03 07:03:22;;;;;;;2.03;1.10;;;19.30;78.00;;;19.84;67.20;100524.00;5246744;28;20123;-57
2022/09/03 07:05:54;;;;;;;1.15;1.02;;;19.40;77.50;;;20.07;66.77;100526.47;5246713;28;20044;-59
2022/09/03 07:08:26;;;;;;;1.20;1.00;;;19.50;77.00;;;20.54;65.01;100525.19;5246763;28;20049;-58
2022/09/03 07:11:00;;;;;;;1.95;0.90;;;19.90;75.60;;;20.98;64.11;100534.41;5246669;28;20048;-57
2022/09/03 07:13:33;;;;;;;1.65;0.90;;;20.30;74.90;;;21.24;62.80;100527.00;5246657;28;20044;-57
2022/09/03 07:16:08;;;;;;;1.20;0.98;;;20.50;73.20;;;21.37;61.58;100533.06;5246631;28;20040;-58
2022/09/03 07:18:42;;;;;;;1.50;1.40;;;20.70;71.80;;;21.51;61.51;100538.16;5246886;28;20045;-58
2022/09/03 07:21:16;;;;;;;1.25;0.93;;;20.90;71.50;;;21.64;61.06;100531.78;5246501;28;20093;-60
2022/09/03 07:23:51;;;;;;;1.15;0.80;;;21.00;70.80;;;21.73;60.92;100533.44;5246443;28;20048;-57
2022/09/03 07:26:25;;;;;;;;;;;21.10;70.40;;;21.78;60.07;100542.19;5246720;28;20052;-58
2022/09/03 07:28:59;;;;;;;0.82;0.82;;;21.20;69.50;;;21.94;60.38;100531.31;5246115;28;19920;-58
2022/09/03 07:31:34;;;;;;;2.30;1.00;;;21.30;69.70;;;22.21;59.79;100540.63;5246180;28;20044;-57
2022/09/03 07:34:09;;;;;;;1.30;1.20;;;21.60;69.00;;;22.56;58.92;100532.94;5246220;28;20548;-57
2022/09/03 07:36:45;;;;;;;1.88;0.80;;;21.80;68.50;;;22.92;57.96;100540.25;5246444;28;20511;-57
2022/09/03 07:39:18;;;;;;;1.08;0.80;;;22.10;67.60;;;23.16;57.12;100543.31;5246060;28;20041;-57
2022/09/03 07:41:51;;;;;;;1.38;0.80;;;22.40;66.20;;;23.07;56.44;100541.72;5246343;28;20055;-56
2022/09/03 07:44:24;;;;;;;2.15;0.90;;;22.40;65.40;;;22.82;56.77;100551.03;5246316;28;20094;-58
2022/09/03 07:46:56;;;;;;;2.78;1.17;;;22.30;65.20;;;22.58;57.43;100553.28;5246065;28;20044;-57
2022/09/03 07:49:28;;;;;;;0.98;0.93;;;22.10;65.60;;;22.41;58.12;100553.56;5246036;28;20048;-59
2022/09/03 07:52:00;;;;;;;1.17;0.93;;;21.90;66.10;;;22.28;58.62;100554.69;5246020;28;20044;-57
2022/09/03 07:54:33;;;;;;;1.33;0.90;;;21.80;66.60;;;22.18;58.86;100558.41;5246187;28;20043;-57
2022/09/03 07:57:06;;;;;;;1.20;0.90;;;21.70;66.70;;;22.15;58.29;100558.44;5246065;28;20048;-58
2022/09/03 07:59:39;;;;;;;1.63;0.90;;;21.70;66.50;;;22.04;58.87;100557.69;5245895;28;20532;-57
2022/09/03 08:02:11;;;;;;;1.95;0.98;;;21.50;66.90;;;21.83;59.62;100559.78;5246024;28;20050;-57
2022/09/03 08:04:44;;;;;;;1.88;1.30;;;21.40;67.40;;;21.67;60.27;100558.28;5246270;28;20044;-56
2022/09/03 08:07:16;;;;;;;1.17;0.98;;;21.30;67.90;;;21.54;60.85;100567.31;5245715;28;20455;-56
2022/09/03 08:09:49;;;;;;;1.00;0.85;;;21.10;68.40;;;21.45;61.20;100570.94;5245993;28;20084;-58
2022/09/03 08:12:23;;;;;;;1.27;0.90;;;21.00;68.70;;;21.32;61.67;100572.91;5245902;28;20092;-57
2022/09/03 08:14:57;;;;;;;1.35;1.00;;;20.90;69.10;;;21.14;62.13;100573.97;5245685;28;20548;-57
2022/09/03 08:17:29;;;;;;;2.05;1.10;;;20.80;69.50;;;20.99;63.15;100574.13;5245723;28;20052;-58
2022/09/03 08:20:01;;;;;;;1.90;1.30;;;20.60;70.30;;;20.80;64.52;100575.22;5245516;28;20094;-57
2022/09/03 08:22:33;;;;;;;1.35;1.17;;;20.50;71.70;;;20.66;67.07;100574.47;5245765;28;20053;-58
2022/09/03 08:25:07;;;;;;;1.08;0.90;;;20.40;74.20;;;20.54;70.23;100586.97;5245151;28;20045;-59
2022/09/03 08:27:40;;;;;;;1.65;1.10;;;20.30;76.70;;;20.51;73.39;100584.34;5245256;28;20403;-59
2022/09/03 08:30:12;;;;;;;1.13;1.02;;;20.20;79.00;;;20.39;74.62;100581.75;5245457;28;20127;-59
2022/09/03 08:32:45;;;;;;;1.10;1.00;;;20.10;80.70;;;20.26;76.01;100588.94;5245514;28;20047;-59
2022/09/03 08:35:17;;;;;;;3.20;1.35;;;20.00;81.80;;;20.07;76.77;100576.72;5245267;28;20493;-58
2022/09/03 08:37:52;;;;;;;1.90;1.30;;;19.90;82.60;;;19.85;77.63;100585.72;5244995;28;20051;-60
2022/09/03 08:40:24;;;;;;;1.30;1.15;;;19.70;83.30;;;19.58;79.86;100589.41;5247491;28;20049;-58
2022/09/03 08:43:08;;;;;;;2.78;1.00;;;19.40;85.40;;;19.45;81.60;100577.97;5249518;28;20037;-60
2022/09/03 08:45:41;;;;;;;1.58;1.10;;;19.30;86.90;;;19.38;83.36;100576.25;5249132;28;20524;-59
2022/09/03 08:48:18;;;;;;;1.10;0.93;;;19.20;88.80;;;19.26;84.22;100577.19;5249485;28;20044;-59
2022/09/03 08:50:58;;;;;;;1.83;1.02;;;19.10;89.70;;;19.23;86.18;100582.47;5249254;28;20040;-59
2022/09/03 08:53:41;;;;;;;1.95;1.40;;;19.00;90.60;;;19.23;89.43;100583.38;5249205;28;20127;-59
2022/09/03 08:56:21;;;;;;;4.97;1.30;;;19.00;91.70;;;19.27;90.32;100581.56;5248604;28;20227;-58
2022/09/03 08:58:55;;;;;;;1.90;1.50;;;19.00;92.40;;;19.24;92.34;100585.13;5248990;28;20049;-59
2022/09/03 09:01:43;;;;;;;1.90;1.30;;;19.00;93.20;;;19.28;94.05;100585.09;5249170;28;20374;-59
2022/09/03 09:04:33;;;;;;;2.22;1.45;;;18.90;94.00;;;19.24;95.44;100586.88;5249108;28;20043;-58
2022/09/03 09:07:11;;;;;;;1.42;1.33;;;18.90;94.60;;;19.24;96.35;100579.84;5247337;28;20059;-60
2022/09/03 09:09:51;;;;;;;2.05;1.27;;;18.90;95.20;;;19.23;96.61;100586.00;5248865;28;20040;-58
2022/09/03 09:12:35;;;;;;;2.45;1.30;;;18.90;95.60;;;19.27;98.08;100586.00;5248880;28;20131;-59
2022/09/03 09:15:14;;;;;;;1.80;1.45;;;18.90;96.10;;;19.27;97.54;100586.88;5248578;28;20045;-58
2022/09/03 09:18:01;;;;;;;1.70;1.52;;;19.00;96.60;;;19.28;98.25;100579.81;5248454;28;20116;-58
2022/09/03 09:20:41;;;;;;;3.00;1.48;;;18.90;96.60;;;19.29;97.93;100571.00;5249019;28;20127;-58
2022/09/03 09:23:16;;;;;;;1.77;1.40;;;18.90;96.80;;;19.36;98.72;100572.72;5248537;28;20475;-58
2022/09/03 09:25:49;;;;;;;;;;;19.00;97.40;;;19.42;99.81;100577.97;5249195;28;20044;-57
2022/09/03 09:28:24;;;;;;;1.33;1.23;;;19.10;97.70;;;19.50;100.00;100577.06;5248588;28;19921;-60
2022/09/03 09:30:57;;;;;;;1.73;1.30;;;19.10;98.00;;;19.59;100.00;100576.19;5248583;28;20075;-58
2022/09/03 09:33:32;;;;;;;1.45;1.30;;;19.20;98.20;;;19.68;100.00;100585.81;5247205;28;20155;-58
2022/09/03 09:36:08;;;;;;;2.67;1.83;;;19.20;98.30;;;19.72;100.00;100577.84;5248032;28;20047;-58
2022/09/03 09:38:40;;;;;;;1.40;1.27;;;19.30;98.50;;;19.77;100.00;100578.72;5248665;28;20063;-58
2022/09/03 09:41:15;;;;;;;1.50;1.40;;;19.40;98.80;;;19.80;100.00;100575.16;5248756;28;20118;-59
2022/09/03 09:43:48;;;;;;;2.00;1.30;;;19.40;98.60;;;19.83;100.00;100574.28;5248551;28;20045;-58
2022/09/03 09:46:25;;;;;;;2.20;1.48;;;19.40;98.70;;;19.88;99.94;100573.34;5247903;28;20386;-58
2022/09/03 09:48:59;;;;;;;2.25;1.67;;;19.50;98.50;;;20.24;99.80;100581.91;5248120;28;20090;-59
2022/09/03 09:51:32;;;;;;;1.73;1.40;;;19.70;98.70;;;20.55;95.67;100577.25;5246764;28;20044;-59
2022/09/03 09:54:17;;;;;;;2.20;1.55;;;20.00;97.90;;;20.74;92.91;100578.84;5248044;28;20047;-60
2022/09/03 09:57:01;;;;;;;1.20;1.10;;;20.20;96.70;;;20.84;91.23;100575.19;5247686;28;20390;-59
2022/09/03 09:59:36;;;;;;;2.13;1.30;;;20.30;96.00;;;21.10;90.60;100577.53;5248007;28;20135;-60
2022/09/03 10:02:19;;;;;;;2.25;1.23;;;20.50;95.80;;;21.39;86.77;100574.56;5248124;28;20103;-58
2022/09/03 10:04:52;;;;;;;2.58;1.20;;;20.70;94.60;;;21.53;84.61;100579.69;5247994;28;20045;-59
2022/09/03 10:07:30;;;;;;;1.70;1.38;;;20.90;93.70;;;21.57;82.98;100577.84;5247529;28;20044;-58
2022/09/03 10:10:06;;;;;;;1.25;1.10;;;21.00;92.90;;;21.44;79.45;100578.91;5246524;28;20047;-59
2022/09/03 10:12:43;;;;;;;6.35;1.33;;;20.90;91.10;;;21.44;80.14;100570.97;5247853;28;20051;-59
2022/09/03 10:15:25;;;;;;;1.50;1.13;;;20.90;91.30;;;21.86;80.48;100573.03;5247551;28;20048;-59
2022/09/03 10:18:08;;;;;;;1.73;1.10;;;21.20;91.60;;;22.55;78.70;100571.03;5247427;28;20041;-58
2022/09/03 10:20:46;;;;;;;2.28;1.20;;;21.60;91.10;;;23.20;75.05;100571.59;5247711;28;20052;-59
2022/09/03 10:23:23;;;;;;;1.23;1.13;;;22.20;89.70;;;23.65;72.53;100579.53;5247643;28;20041;-58
2022/09/03 10:26:06;;;;;;;2.47;1.08;;;22.60;86.60;;;24.06;70.10;100573.22;5246980;28;20485;-59
2022/09/03 10:28:41;;;;;;;2.33;1.15;;;23.10;83.60;;;24.30;67.13;100569.09;5247527;28;20056;-60
2022/09/03 10:31:55;;;;;;;3.00;1.20;;;23.40;80.30;;;24.40;67.47;100573.31;5247136;28;20417;-58
2022/09/03 10:34:36;;;;;;;2.25;1.10;;;23.50;79.70;;;24.64;67.83;100574.44;5162537;28;20134;-58
2022/09/03 10:37:21;;;;;;;1.65;1.10;;;23.70;79.60;;;24.74;67.09;100575.97;5162224;28;20093;-59
2022/09/03 10:40:12;;;;;;;1.85;1.23;;;23.90;78.40;;;24.56;66.33;100565.78;5221908;28;20143;-60
2022/09/03 10:42:49;;;;;;;1.50;1.23;;;23.80;77.10;;;24.42;66.62;100576.81;5247289;28;20115;-60
2022/09/03 10:45:32;;;;;;;3.38;1.73;;;23.70;77.10;;;24.32;66.74;100567.25;5247110;28;20048;-59
2022/09/03 10:48:41;;;;;;;1.77;1.20;;;23.60;76.60;;;24.24;66.69;100570.13;5246975;28;20415;-59
2022/09/03 10:51:20;;;;;;;2.40;1.00;;;23.60;76.50;;;24.25;67.26;100566.53;5246972;28;20420;-58
2022/09/03 10:54:23;;;;;;;1.23;1.13;;;23.60;76.90;;;24.23;66.93;100568.38;5247024;28;20048;-59
2022/09/03 10:57:04;;;;;;;1.20;1.10;;;23.50;76.40;;;24.18;67.09;100566.72;5238964;28;20536;-60